Pays
Station

 

Conditions  météo  pour  Castlegar Airport  -  Canada    Canada

  
21 °C
    
 
 

METAR pour Castlegar Airport :

CYCG 250100Z 19005KT 15SM BKN090 BKN110 21/08 A3002 RMK AC5AC2 LAST STFD OBS/NEXT 251500Z SLP168 DENSITY ALT 2700FT

 

Voici le bulletin pour Castlegar Airport - Canada.
 
Le bulletin a été fait il y a 12 heures et 22 minutes, à 01:00 UTC .
Le vent soufflait à la vitesse de 2.6 mètres par seconde de Sud (190°).
 
La température était de 21 °C, avec un point de rosée à 8 °C.
La pression atmosphérique était de 1017 hPa.
L'humidité relative était de 43.1%.
 
Il y avait 5 à 7/8ème de nébulosité à une hauteur de 2743 mètres et 5 à 7/8ème de nébulosité à une hauteur de 3353 mètres.
 
La visibilité globale était de 24.1 kilomètres.
 

 
 
 

Pays :   A   B   C   D   E   F   G   H   I   J   K   L   M   N   O   P   Q   R   S   T   U   V   W   Y   Z

 

Partenaires :  Info Météo avec Met'info
Météo Marine avec MeteoMarine.net
Infos Site  |  Infos Légales  |  Crédits  |  Confidentialité
Contactez-nous  |  Ajouter aux favoris
© 2013-2020 METAR - Tous droits réservés